Time;durP1;ratioP1;P1;durP2;ratioP2;P2;SDS_P1;SDS_P2;PMS_P1;PMS_P2;Temp;Humidity;BMP_temperature;BMP_pressure;BME280_temperature;BME280_humidity;BME280_pressure;Samples;Min_cycle;Max_cycle;Signal;HPM_P1;HPM_P2
2023/05/31 00:02:16;;;;;;;8.80;8.33;;;;;;;-145.94;57.06;77554.91;5115093;28;20648;-69
2023/05/31 00:04:43;;;;;;;8.53;8.27;;;;;;;-145.94;57.35;77552.84;5114741;28;20192;-69
2023/05/31 00:07:09;;;;;;;9.47;9.17;;;;;;;-145.94;57.09;77556.94;5114920;28;20205;-69
2023/05/31 00:09:36;;;;;;;9.23;8.73;;;;;;;-145.94;57.29;77569.19;5114628;28;20229;-69
2023/05/31 00:12:02;;;;;;;9.10;8.33;;;;;;;-145.94;57.46;77571.22;5114663;28;20185;-69
2023/05/31 00:14:29;;;;;;;8.37;7.90;;;;;;;-145.94;57.63;77577.34;5114554;28;20200;-69
2023/05/31 00:16:55;;;;;;;8.47;8.27;;;;;;;-145.94;57.72;77577.34;5114793;28;20189;-69
2023/05/31 00:19:25;;;;;;;8.87;8.47;;;;;;;-145.94;57.70;77585.50;5114163;28;20209;-69
2023/05/31 00:21:51;;;;;;;9.30;8.73;;;;;;;-145.94;57.87;77577.34;5114955;28;20647;-69
2023/05/31 00:24:18;;;;;;;7.90;7.60;;;;;;;-145.94;57.83;77579.38;5114692;28;20266;-69
2023/05/31 00:26:44;;;;;;;8.60;8.10;;;;;;;-145.94;58.02;77581.41;5114306;28;20254;-69
2023/05/31 00:29:12;;;;;;;8.93;8.53;;;;;;;-145.94;57.79;77581.41;5114274;28;20678;-69
2023/05/31 00:31:40;;;;;;;8.73;8.33;;;;;;;-145.94;58.39;77587.53;5114308;28;20189;-69
2023/05/31 00:34:12;;;;;;;9.50;8.83;;;;;;;-145.94;58.26;77587.53;5095950;28;20640;-69
2023/05/31 00:36:38;;;;;;;9.93;9.43;;;;;;;-145.94;57.77;77585.50;5114152;28;20234;-69
2023/05/31 00:39:05;;;;;;;8.47;8.13;;;;;;;-145.94;57.96;77585.50;5095852;28;20271;-69
2023/05/31 00:41:31;;;;;;;9.90;9.47;;;;;;;-145.94;57.90;77593.66;5114666;28;20189;-69
2023/05/31 00:43:58;;;;;;;8.70;8.40;;;;;;;-145.94;58.27;77587.53;5114107;28;20189;-69
2023/05/31 00:46:36;;;;;;;8.87;8.57;;;;;;;-145.94;58.12;77599.78;5114230;28;20201;-69
2023/05/31 00:49:03;;;;;;;8.83;8.57;;;;;;;-145.94;58.39;77593.66;5095677;28;20307;-69
2023/05/31 00:51:31;;;;;;;9.73;9.27;;;;;;;-145.94;58.28;77599.78;5114316;28;20551;-70
2023/05/31 00:53:59;;;;;;;8.70;8.33;;;;;;;-145.94;58.38;77597.72;5113927;28;20177;-69
2023/05/31 00:56:26;;;;;;;8.93;8.40;;;;;;;-145.94;58.43;77601.81;5113863;28;20193;-69
2023/05/31 00:58:56;;;;;;;8.83;8.17;;;;;;;-145.94;58.70;77607.94;5114128;28;20615;-69
2023/05/31 01:01:26;;;;;;;8.60;8.30;;;;;;;-145.94;58.25;77612.00;5113837;28;20189;-69
2023/05/31 01:03:55;;;;;;;10.17;9.53;;;;;;;-145.94;58.55;77609.97;5114102;28;20173;-69
2023/05/31 01:06:23;;;;;;;10.17;9.60;;;;;;;-145.94;58.32;77616.09;5095702;28;20208;-69
2023/05/31 01:08:51;;;;;;;8.17;7.80;;;;;;;-145.94;58.79;77607.94;5113703;28;20240;-69
2023/05/31 01:11:27;;;;;;;8.87;8.03;;;;;;;-145.94;58.89;77616.09;5114043;28;20177;-69
2023/05/31 01:14:17;;;;;;;8.67;8.40;;;;;;;-145.94;58.45;77618.13;5095541;28;20693;-69
2023/05/31 01:16:54;;;;;;;9.27;8.90;;;;;;;-145.94;58.54;77614.03;5114256;28;20604;-69
2023/05/31 01:19:52;;;;;;;9.07;8.40;;;;;;;-145.94;58.85;77622.22;5113751;28;20287;-69
2023/05/31 01:22:28;;;;;;;8.70;8.23;;;;;;;-145.94;59.24;77616.09;5106218;28;20197;-69
2023/05/31 01:25:28;;;;;;;8.53;8.23;;;;;;;-145.94;59.11;77622.22;5113853;28;20185;-69
2023/05/31 01:27:56;;;;;;;8.57;8.17;;;;;;;-145.94;58.83;77628.31;5109298;28;20285;-68
2023/05/31 01:30:26;;;;;;;9.13;8.63;;;;;;;-145.94;59.24;77624.25;5096171;28;20193;-69
2023/05/31 01:32:57;;;;;;;8.77;8.43;;;;;;;-145.94;58.86;77626.28;5117707;28;20276;-69
2023/05/31 01:35:23;;;;;;;8.97;8.53;;;;;;;-145.94;59.06;77622.22;5099431;28;20207;-69
2023/05/31 01:37:50;;;;;;;8.70;8.37;;;;;;;-145.94;58.87;77626.28;5099347;28;20209;-69
2023/05/31 01:40:17;;;;;;;7.83;7.63;;;;;;;-145.94;59.16;77630.38;5117880;28;20192;-69
2023/05/31 01:42:46;;;;;;;8.23;7.97;;;;;;;-145.94;59.00;77638.53;5117556;28;20181;-69
2023/05/31 01:45:15;;;;;;;9.27;8.97;;;;;;;-145.94;59.44;77634.44;5099206;28;20188;-69
2023/05/31 01:47:42;;;;;;;9.23;8.80;;;;;;;-145.94;58.84;77638.53;5099045;28;20212;-69
2023/05/31 01:50:12;;;;;;;9.43;9.00;;;;;;;-145.94;59.60;77646.69;5099081;28;20196;-69
2023/05/31 01:52:40;;;;;;;9.47;9.03;;;;;;;-145.94;59.57;77642.59;5099126;28;20303;-69
2023/05/31 01:55:07;;;;;;;8.87;8.47;;;;;;;-145.94;59.57;77644.63;5099002;28;20655;-69
2023/05/31 01:57:38;;;;;;;8.87;8.37;;;;;;;-145.94;59.47;77656.88;5098872;28;20598;-69
2023/05/31 02:00:09;;;;;;;9.10;8.80;;;;;;;-145.94;59.92;77660.97;5098901;28;20198;-69
2023/05/31 02:02:41;;;;;;;9.43;8.87;;;;;;;-145.94;59.39;77665.03;5117216;28;20248;-69
2023/05/31 02:05:13;;;;;;;9.60;9.30;;;;;;;-145.94;59.73;77663.00;5098813;28;20732;-69
2023/05/31 02:07:44;;;;;;;8.90;8.27;;;;;;;-145.94;60.01;77671.16;5099356;28;20207;-69
2023/05/31 02:10:12;;;;;;;8.03;7.83;;;;;;;-145.94;59.64;77675.22;5117641;28;20210;-68
2023/05/31 02:12:38;;;;;;;9.90;9.50;;;;;;;-145.94;60.08;77671.16;5098680;28;20196;-68
2023/05/31 02:15:10;;;;;;;9.40;8.93;;;;;;;-145.94;60.06;77675.22;5117486;28;20178;-68
2023/05/31 02:17:42;;;;;;;8.73;8.43;;;;;;;-145.94;60.06;77677.28;5117125;27;20170;-69
2023/05/31 02:20:12;;;;;;;9.13;8.73;;;;;;;-145.94;60.21;77681.34;5117146;28;20168;-69
2023/05/31 02:22:40;;;;;;;9.57;8.93;;;;;;;-145.94;59.82;77685.44;5098583;28;20703;-69
2023/05/31 02:25:08;;;;;;;9.23;8.87;;;;;;;-145.94;60.13;77687.47;5117318;28;20597;-69
2023/05/31 02:27:39;;;;;;;9.60;9.17;;;;;;;-145.94;60.53;77687.47;5098191;28;20215;-69
2023/05/31 02:30:07;;;;;;;10.80;10.00;;;;;;;-145.94;60.06;77691.56;5116953;28;20182;-69
2023/05/31 02:32:35;;;;;;;10.13;9.80;;;;;;;-145.94;60.39;77691.56;5098391;28;20246;-69
2023/05/31 02:35:07;;;;;;;9.80;9.30;;;;;;;-145.94;60.10;77703.78;5098349;28;20216;-69
2023/05/31 02:37:35;;;;;;;9.17;8.87;;;;;;;-145.94;60.12;77705.81;5116720;28;20174;-69
2023/05/31 02:40:08;;;;;;;10.27;9.77;;;;;;;-145.94;60.91;77705.81;5098200;28;20606;-69
2023/05/31 02:42:40;;;;;;;9.87;9.47;;;;;;;-145.94;60.41;77705.81;5097929;28;20192;-69
2023/05/31 02:45:09;;;;;;;11.03;10.43;;;;;;;-145.94;60.57;77711.94;5116672;28;20259;-69
2023/05/31 02:47:37;;;;;;;9.93;9.47;;;;;;;-145.94;61.03;77714.00;5098404;28;20213;-69
2023/05/31 02:50:07;;;;;;;10.30;9.73;;;;;;;-145.94;61.06;77718.06;5097989;28;20193;-69
2023/05/31 02:52:37;;;;;;;10.63;9.87;;;;;;;-145.94;61.06;77724.19;5098542;28;20193;-69
2023/05/31 02:55:12;;;;;;;11.53;10.93;;;;;;;-145.94;61.00;77720.09;5098493;28;20185;-69
2023/05/31 02:58:06;;;;;;;10.47;9.83;;;;;;;-145.94;61.13;77726.22;5115889;28;20215;-69
2023/05/31 03:00:36;;;;;;;10.47;9.67;;;;;;;-145.94;61.09;77726.22;5098066;28;20193;-69
2023/05/31 03:03:02;;;;;;;9.80;9.23;;;;;;;-145.94;61.26;77724.19;5098005;28;20599;-69
2023/05/31 03:05:40;;;;;;;10.23;9.63;;;;;;;-145.94;61.34;77724.19;5098562;28;20238;-69
2023/05/31 03:08:07;;;;;;;10.80;10.20;;;;;;;-145.94;61.58;77732.34;5097579;28;20607;-69
2023/05/31 03:10:33;;;;;;;11.23;10.33;;;;;;;-145.94;61.65;77734.38;5115900;28;20242;-69
2023/05/31 03:13:00;;;;;;;10.13;9.63;;;;;;;-145.94;61.73;77744.59;5116128;28;20181;-69
2023/05/31 03:15:26;;;;;;;10.03;9.33;;;;;;;-145.94;61.68;77740.50;5097568;28;20192;-69
2023/05/31 03:17:53;;;;;;;10.40;9.90;;;;;;;-145.94;61.64;77740.50;5097406;28;20236;-69
2023/05/31 03:20:20;;;;;;;11.10;10.37;;;;;;;-145.94;61.27;77748.66;5097418;28;20238;-69
2023/05/31 03:22:46;;;;;;;10.70;9.73;;;;;;;-145.94;61.34;77746.63;5097352;28;20193;-69
2023/05/31 03:25:13;;;;;;;10.20;9.70;;;;;;;-145.94;61.46;77748.66;5097332;28;20207;-69
2023/05/31 03:27:39;;;;;;;11.63;10.77;;;;;;;-145.94;62.07;77752.75;5115310;28;20621;-69
2023/05/31 03:30:07;;;;;;;11.40;10.70;;;;;;;-145.94;61.92;77758.84;5097502;28;20189;-69
2023/05/31 03:32:43;;;;;;;10.10;9.60;;;;;;;-145.94;61.75;77767.00;5097222;28;20185;-69
2023/05/31 03:35:10;;;;;;;12.93;10.50;;;;;;;-145.94;62.35;77769.06;5115386;28;20192;-69
2023/05/31 03:37:36;;;;;;;12.23;11.07;;;;;;;-145.94;62.47;77771.09;5097248;28;20643;-69
2023/05/31 03:40:08;;;;;;;11.50;10.40;;;;;;;-145.94;62.20;77775.19;5115612;28;20215;-69
2023/05/31 03:42:35;;;;;;;11.43;10.80;;;;;;;-145.94;62.37;77773.13;5096972;28;20241;-69
2023/05/31 03:45:02;;;;;;;11.93;10.83;;;;;;;-145.94;62.51;77769.06;5115171;28;20193;-69
2023/05/31 03:47:28;;;;;;;10.80;10.27;;;;;;;-145.94;62.70;77764.97;5096711;28;20220;-69
2023/05/31 03:49:55;;;;;;;10.77;10.07;;;;;;;-145.94;62.69;77764.97;5096852;28;20185;-70
2023/05/31 03:52:22;;;;;;;10.57;9.97;;;;;;;-145.94;62.52;77773.13;5115241;28;20192;-69
2023/05/31 03:54:49;;;;;;;13.33;12.00;;;;;;;-145.94;62.39;77781.28;5114400;28;20548;-69
2023/05/31 03:57:16;;;;;;;12.57;11.63;;;;;;;-145.94;62.43;77769.06;5114989;28;20183;-69
2023/05/31 03:59:42;;;;;;;12.13;11.03;;;;;;;-145.94;62.97;77769.06;5114872;28;20209;-69
2023/05/31 04:02:08;;;;;;;12.03;11.07;;;;;;;-145.94;62.47;77767.00;5115393;28;20181;-69
2023/05/31 04:04:35;;;;;;;12.03;11.23;;;;;;;-145.94;63.14;77762.94;5114806;28;20216;-69
2023/05/31 04:07:01;;;;;;;12.17;11.07;;;;;;;-145.94;63.09;77756.81;5115248;28;20213;-69
2023/05/31 04:09:28;;;;;;;11.13;10.50;;;;;;;-145.94;62.71;77748.66;5096338;28;20227;-69
2023/05/31 04:11:56;;;;;;;12.60;11.33;;;;;;;-145.94;63.13;77752.75;5096442;28;20189;-69
2023/05/31 04:14:23;;;;;;;13.17;11.87;;;;;;;-145.94;63.07;77740.50;5096399;28;20189;-69
2023/05/31 04:16:49;;;;;;;12.87;11.53;;;;;;;-145.94;62.99;77744.59;5096317;28;20254;-69
2023/05/31 04:19:16;;;;;;;13.13;11.97;;;;;;;-145.94;63.08;77740.50;5114595;28;20207;-69
2023/05/31 04:21:43;;;;;;;14.33;11.93;;;;;;;-145.94;63.24;77740.50;5096230;28;20220;-69
2023/05/31 04:24:09;;;;;;;12.07;11.00;;;;;;;-145.94;62.69;77738.47;5096192;28;20192;-69
2023/05/31 04:26:37;;;;;;;14.13;12.30;;;;;;;-145.94;63.00;77738.47;5096091;28;20204;-69
2023/05/31 04:29:05;;;;;;;14.63;13.40;;;;;;;-145.94;63.45;77738.47;5095898;28;20220;-69
2023/05/31 04:31:35;;;;;;;14.53;11.80;;;;;;;-145.94;63.09;77720.09;5095902;28;20197;-69
2023/05/31 04:34:18;;;;;;;15.13;11.90;;;;;;;-145.94;62.83;77711.94;5096803;28;20185;-69
2023/05/31 04:36:48;;;;;;;14.00;12.80;;;;;;;-145.94;62.70;77705.81;5096228;28;20185;-69
2023/05/31 04:39:21;;;;;;;13.37;12.27;;;;;;;-145.94;63.20;77697.66;5095921;28;20296;-69
2023/05/31 04:41:49;;;;;;;14.57;13.20;;;;;;;-145.94;63.16;77693.59;5096218;28;20251;-69
2023/05/31 04:44:18;;;;;;;13.47;12.10;;;;;;;-145.94;62.47;77681.34;5095819;28;20675;-69
2023/05/31 04:46:45;;;;;;;13.87;12.70;;;;;;;-145.94;62.54;77675.22;5096035;28;20215;-69
2023/05/31 04:49:13;;;;;;;15.70;13.70;;;;;;;-145.94;62.19;77667.06;5095693;28;20300;-69
2023/05/31 04:51:39;;;;;;;18.60;13.17;;;;;;;-145.94;62.35;77654.84;5095851;28;20173;-69
2023/05/31 04:54:06;;;;;;;13.20;12.23;;;;;;;-145.94;62.37;77656.88;5095899;28;20189;-69
2023/05/31 04:56:33;;;;;;;15.97;13.47;;;;;;;-145.94;62.30;77644.63;5095732;28;20189;-69
2023/05/31 04:58:59;;;;;;;13.93;12.90;;;;;;;-145.94;62.19;77656.88;5095613;28;20248;-69
2023/05/31 05:01:27;;;;;;;13.50;12.40;;;;;;;-145.94;61.75;77646.69;5095842;28;20681;-69
2023/05/31 05:04:01;;;;;;;15.03;13.47;;;;;;;-145.94;61.96;77644.63;5095906;28;20677;-69
2023/05/31 05:06:29;;;;;;;14.57;13.03;;;;;;;-145.94;61.58;77646.69;5095552;28;20199;-69
2023/05/31 05:08:56;;;;;;;14.27;12.97;;;;;;;-145.94;61.91;77640.56;5095466;28;20303;-69
2023/05/31 05:11:25;;;;;;;12.77;11.80;;;;;;;-145.94;61.74;77622.22;5095708;28;20598;-69
2023/05/31 05:13:51;;;;;;;19.80;13.53;;;;;;;-145.94;61.41;77605.88;5095485;28;20196;-69
2023/05/31 05:16:22;;;;;;;15.03;13.50;;;;;;;-145.94;61.18;77603.84;5095517;28;20220;-69
2023/05/31 05:18:49;;;;;;;14.73;12.30;;;;;;;-145.94;61.34;77607.94;5095328;28;20219;-69
2023/05/31 05:21:15;;;;;;;15.30;13.80;;;;;;;-145.94;60.80;77599.78;5095426;28;20189;-69
2023/05/31 05:23:42;;;;;;;13.20;12.00;;;;;;;-145.94;60.82;77597.72;5096150;28;20192;-69
2023/05/31 05:26:10;;;;;;;23.17;12.73;;;;;;;-145.94;60.67;77597.72;5113654;28;20610;-69
2023/05/31 05:28:36;;;;;;;13.43;12.33;;;;;;;-145.94;60.68;77583.44;5095023;28;20575;-69
2023/05/31 05:31:03;;;;;;;13.77;12.53;;;;;;;-145.94;60.43;77575.28;5095291;28;20178;-69
2023/05/31 05:33:35;;;;;;;18.60;12.53;;;;;;;-145.94;59.87;77565.09;5095822;28;20185;-68
2023/05/31 05:36:02;;;;;;;18.57;13.77;;;;;;;-145.94;60.08;77561.03;5095272;28;20195;-69
2023/05/31 05:38:30;;;;;;;14.70;12.13;;;;;;;-145.94;59.55;77567.13;5095132;28;20300;-69
2023/05/31 05:40:57;;;;;;;16.57;12.50;;;;;;;-145.94;59.90;77561.03;5095210;28;20193;-69
2023/05/31 05:43:23;;;;;;;14.67;12.33;;;;;;;-145.94;59.85;77544.69;5113657;28;20528;-69
2023/05/31 05:46:07;;;;;;;16.30;12.63;;;;;;;-145.94;59.45;77522.25;5095440;28;20555;-69
2023/05/31 05:48:34;;;;;;;12.97;11.93;;;;;;;-145.94;59.31;77510.03;5095029;28;20247;-70
2023/05/31 05:51:03;;;;;;;12.47;11.13;;;;;;;-145.94;59.26;77497.78;5095027;28;20246;-70
2023/05/31 05:53:29;;;;;;;15.93;12.60;;;;;;;-145.94;58.91;77487.59;5095094;28;20284;-69
2023/05/31 05:55:56;;;;;;;11.87;10.97;;;;;;;-145.94;58.80;77471.28;5095882;28;20189;-69
2023/05/31 05:58:28;;;;;;;12.50;11.50;;;;;;;-145.94;58.18;77465.16;5094961;28;20751;-69
2023/05/31 06:01:26;;;;;;;12.30;11.17;;;;;;;-145.94;57.97;77461.09;5095251;28;20207;-69
2023/05/31 06:03:55;;;;;;;12.90;12.00;;;;;;;-145.94;57.78;77450.88;5095502;28;20228;-69
2023/05/31 06:06:22;;;;;;;13.00;11.90;;;;;;;-145.94;57.33;77440.69;5095011;28;20655;-70
2023/05/31 06:08:48;;;;;;;17.97;11.60;;;;;;;-145.94;57.33;77438.66;5094949;28;20242;-70
2023/05/31 06:11:16;;;;;;;19.80;11.23;;;;;;;-145.94;57.39;77420.28;5094880;28;20217;-71
2023/05/31 06:13:42;;;;;;;11.17;10.17;;;;;;;-145.94;57.05;77406.00;5094847;28;20189;-69
2023/05/31 06:16:10;;;;;;;11.63;10.83;;;;;;;-145.94;56.53;77403.97;5095285;28;20199;-69
2023/05/31 06:18:36;;;;;;;11.57;10.67;;;;;;;-145.94;56.85;77385.63;5098556;28;20258;-69
2023/05/31 06:21:03;;;;;;;11.13;10.30;;;;;;;-145.94;55.92;77379.50;5098501;28;20594;-69
2023/05/31 06:23:30;;;;;;;12.77;10.43;;;;;;;-145.94;56.34;77369.31;5098494;28;20238;-69
2023/05/31 06:25:56;;;;;;;11.10;10.10;;;;;;;-145.94;55.92;77365.22;5098464;28;20196;-69
2023/05/31 06:28:23;;;;;;;12.37;10.30;;;;;;;-145.94;55.51;77359.09;5098155;28;20267;-69
2023/05/31 06:30:52;;;;;;;10.73;9.90;;;;;;;-145.94;55.67;77342.78;5098601;28;20279;-69
2023/05/31 06:33:19;;;;;;;10.40;9.47;;;;;;;-145.94;55.16;77334.63;5098427;28;20193;-69
2023/05/31 06:35:45;;;;;;;9.67;9.13;;;;;;;-145.94;55.13;77322.41;5116567;28;20189;-69
2023/05/31 06:38:15;;;;;;;10.77;10.10;;;;;;;-145.94;54.95;77314.25;5116747;28;20197;-69
2023/05/31 06:40:44;;;;;;;12.50;11.23;;;;;;;-145.94;54.81;77302.00;5116465;28;20235;-69
2023/05/31 06:43:10;;;;;;;11.40;9.73;;;;;;;-145.94;54.28;77293.84;5098238;28;20264;-70
2023/05/31 06:45:56;;;;;;;12.60;10.17;;;;;;;-145.94;54.25;77285.69;5116976;28;20184;-69
2023/05/31 06:48:42;;;;;;;10.43;9.83;;;;;;;-145.94;54.17;77267.34;5115994;28;20673;-69
2023/05/31 06:51:27;;;;;;;9.23;8.63;;;;;;;-145.94;54.45;77257.13;5116918;28;20179;-69
2023/05/31 06:54:22;;;;;;;10.03;8.97;;;;;;;-145.94;54.63;77218.38;5116089;28;20204;-69
2023/05/31 06:56:51;;;;;;;10.80;9.90;;;;;;;-145.94;53.55;77208.19;5098739;28;20200;-69
2023/05/31 06:59:17;;;;;;;10.17;9.27;;;;;;;-145.94;52.81;77189.84;5097725;28;20291;-69
2023/05/31 07:01:43;;;;;;;10.30;9.50;;;;;;;-145.94;52.92;77177.59;5097879;28;20193;-69
2023/05/31 07:04:10;;;;;;;9.03;8.20;;;;;;;-145.94;52.69;77163.31;5097780;28;20189;-69
2023/05/31 07:06:37;;;;;;;10.70;9.63;;;;;;;-145.94;52.86;77138.84;5098076;28;20189;-70
2023/05/31 07:09:04;;;;;;;10.23;9.27;;;;;;;-145.94;51.81;77128.66;5097421;28;20220;-69
2023/05/31 07:11:51;;;;;;;10.37;9.03;;;;;;;-145.94;51.88;77120.50;5115274;28;20212;-69
2023/05/31 07:14:18;;;;;;;13.67;9.10;;;;;;;-145.94;51.11;77104.19;5116105;28;20234;-69
2023/05/31 07:16:44;;;;;;;11.33;8.57;;;;;;;-145.94;51.13;77098.06;5116123;28;20654;-69
2023/05/31 07:19:11;;;;;;;8.50;7.97;;;;;;;-145.94;51.31;77083.78;5097422;28;20223;-70
2023/05/31 07:21:39;;;;;;;8.73;7.80;;;;;;;-145.94;51.17;77079.72;5097485;28;20189;-69
2023/05/31 07:24:05;;;;;;;8.53;8.03;;;;;;;-145.94;51.33;77067.47;5115637;28;20185;-69
2023/05/31 07:26:32;;;;;;;10.00;9.07;;;;;;;-145.94;51.11;77055.25;5115530;28;20671;-70
2023/05/31 07:28:58;;;;;;;9.20;8.23;;;;;;;-145.94;51.13;77045.03;5114289;28;20213;-69
2023/05/31 07:31:25;;;;;;;7.80;7.37;;;;;;;-145.94;51.17;77043.00;5115632;28;20536;-70
2023/05/31 07:33:51;;;;;;;9.73;8.90;;;;;;;-145.94;50.64;77043.00;5097266;28;20181;-70
2023/05/31 07:36:18;;;;;;;9.73;8.73;;;;;;;-145.94;49.95;77032.81;5115964;28;20189;-70
2023/05/31 07:38:44;;;;;;;9.10;8.27;;;;;;;-145.94;50.15;77034.84;5115436;28;20205;-70
2023/05/31 07:41:11;;;;;;;8.67;8.13;;;;;;;-145.94;50.39;77010.38;5115693;28;20177;-70
2023/05/31 07:43:39;;;;;;;7.77;6.93;;;;;;;-145.94;50.37;76987.94;5115816;28;20246;-70
2023/05/31 07:46:05;;;;;;;8.70;7.87;;;;;;;-145.94;48.66;76992.03;5116097;28;20189;-70
2023/05/31 07:48:33;;;;;;;11.00;7.87;;;;;;;-145.94;49.06;76979.78;5115337;28;20217;-69
2023/05/31 07:51:00;;;;;;;7.93;7.57;;;;;;;-145.94;48.26;76989.97;5115631;28;20639;-70
2023/05/31 07:53:26;;;;;;;8.77;7.80;;;;;;;-145.94;48.48;76981.81;5115088;28;20192;-69
2023/05/31 07:55:53;;;;;;;8.13;7.53;;;;;;;-145.94;48.62;76971.63;5115299;28;20246;-69
2023/05/31 07:58:19;;;;;;;9.30;8.50;;;;;;;-145.94;48.70;76947.16;5114939;28;20269;-70
2023/05/31 08:00:46;;;;;;;8.70;8.13;;;;;;;-145.94;48.79;76936.97;5115272;28;20562;-70
2023/05/31 08:03:13;;;;;;;12.63;7.83;;;;;;;-145.94;48.69;76920.66;5115111;28;20708;-70
2023/05/31 08:05:40;;;;;;;10.63;8.43;;;;;;;-145.94;48.47;76902.28;5114894;28;20189;-70
2023/05/31 08:08:06;;;;;;;8.50;7.73;;;;;;;-145.94;48.06;76918.63;5114671;28;20622;-70
2023/05/31 08:10:33;;;;;;;7.83;7.13;;;;;;;-145.94;48.23;76902.28;5115123;28;20253;-69
2023/05/31 08:12:59;;;;;;;9.77;7.10;;;;;;;-145.94;47.47;76888.03;5114864;28;20234;-69
2023/05/31 08:15:26;;;;;;;10.50;8.10;;;;;;;-145.94;46.86;76881.91;5114825;28;20185;-70
2023/05/31 08:17:52;;;;;;;8.17;7.47;;;;;;;-145.94;46.62;76869.66;5114602;28;20197;-70
2023/05/31 08:20:20;;;;;;;8.77;7.93;;;;;;;-145.94;46.67;76863.56;5114575;28;20268;-70
2023/05/31 08:22:47;;;;;;;7.50;7.13;;;;;;;-145.94;46.73;76847.25;5115147;28;20268;-70
2023/05/31 08:25:14;;;;;;;7.50;6.67;;;;;;;-145.94;46.87;76839.09;5114761;28;20197;-70
2023/05/31 08:27:40;;;;;;;7.30;6.80;;;;;;;-145.94;46.25;76845.19;5114217;28;20279;-70
2023/05/31 08:30:10;;;;;;;6.97;6.57;;;;;;;-145.94;46.60;76830.94;5115034;28;20193;-70
2023/05/31 08:32:37;;;;;;;14.60;6.50;;;;;;;-145.94;46.08;76822.78;5114432;28;20616;-70
2023/05/31 08:35:06;;;;;;;9.90;6.40;;;;;;;-145.94;46.03;76820.72;5114264;28;20189;-70
2023/05/31 08:37:35;;;;;;;7.47;6.93;;;;;;;-145.94;46.01;76816.66;5114191;28;20196;-70
2023/05/31 08:40:03;;;;;;;7.00;6.47;;;;;;;-145.94;45.64;76790.16;5114052;28;20234;-70
2023/05/31 08:42:38;;;;;;;9.40;6.23;;;;;;;-145.94;45.27;76786.06;5114183;28;20234;-71
2023/05/31 08:45:06;;;;;;;6.50;6.00;;;;;;;-145.94;45.15;76779.94;5114494;28;20164;-70
2023/05/31 08:47:51;;;;;;;6.40;6.00;;;;;;;-145.94;45.31;76761.59;5114318;28;20566;-70
2023/05/31 08:50:18;;;;;;;6.23;5.50;;;;;;;-145.94;44.74;76751.41;5114401;28;20183;-70
2023/05/31 08:52:46;;;;;;;6.00;5.37;;;;;;;-145.94;44.14;76733.03;5114673;28;20305;-70
2023/05/31 08:55:13;;;;;;;5.80;5.60;;;;;;;-145.94;44.06;76708.56;5114319;28;20276;-70
2023/05/31 08:57:40;;;;;;;7.03;6.37;;;;;;;-145.94;42.96;76706.53;5114506;28;20243;-70
2023/05/31 09:00:14;;;;;;;5.33;5.23;;;;;;;-145.94;43.32;76702.47;5113922;28;20189;-71
2023/05/31 09:02:41;;;;;;;5.87;5.57;;;;;;;-145.94;42.51;76704.50;5114318;28;20586;-70
2023/05/31 09:05:10;;;;;;;5.83;5.43;;;;;;;-145.94;42.75;76692.25;5113990;28;20273;-70
2023/05/31 09:07:38;;;;;;;5.30;5.10;;;;;;;-145.94;42.84;76694.31;5113809;28;20219;-71
2023/05/31 09:10:07;;;;;;;5.13;4.80;;;;;;;-145.94;42.82;76675.94;5114397;28;20201;-70
2023/05/31 09:12:33;;;;;;;5.13;4.70;;;;;;;-145.94;42.25;76659.63;5114132;28;20177;-70
2023/05/31 09:15:00;;;;;;;11.13;5.20;;;;;;;-145.94;39.72;76635.16;5113820;28;20193;-70
2023/05/31 09:17:26;;;;;;;6.17;5.80;;;;;;;-145.94;40.85;76622.94;5113727;28;20242;-70
2023/05/31 09:19:54;;;;;;;6.43;4.07;;;;;;;-145.94;40.81;76604.59;5114237;28;20185;-70
2023/05/31 09:22:23;;;;;;;4.53;4.13;;;;;;;-145.94;41.27;76578.06;5113635;28;20181;-71
2023/05/31 09:25:00;;;;;;;6.63;4.40;;;;;;;-145.94;39.69;76569.91;5113723;28;20203;-70
2023/05/31 09:27:37;;;;;;;4.73;4.53;;;;;;;-145.94;39.69;76561.75;5113655;28;20180;-70
2023/05/31 09:30:08;;;;;;;8.67;5.03;;;;;;;-145.94;39.97;76549.53;5113467;28;20277;-71
2023/05/31 09:32:35;;;;;;;4.53;4.20;;;;;;;-145.94;39.41;76553.59;5113700;28;20177;-70
2023/05/31 09:35:13;;;;;;;4.60;4.30;;;;;;;-145.94;38.89;76549.53;5113548;28;20254;-71
2023/05/31 09:37:47;;;;;;;3.97;3.77;;;;;;;-145.94;39.27;76537.28;5114448;28;20561;-71
2023/05/31 09:40:14;;;;;;;6.93;4.20;;;;;;;-145.94;38.60;76527.09;5113828;28;20219;-71
2023/05/31 09:42:48;;;;;;;5.40;3.57;;;;;;;-145.94;36.22;76529.13;5114274;28;20189;-70
2023/05/31 09:45:16;;;;;;;3.70;3.63;;;;;;;-145.94;36.90;76525.06;5113267;28;20226;-70
2023/05/31 09:47:43;;;;;;;5.90;4.10;;;;;;;-145.94;36.89;76527.09;5113365;28;20189;-71
2023/05/31 09:50:10;;;;;;;5.63;3.43;;;;;;;-145.94;36.83;76508.75;5113287;28;20209;-71
2023/05/31 09:52:40;;;;;;;4.00;3.80;;;;;;;-145.94;35.83;76498.56;5116236;28;20177;-70
2023/05/31 09:55:12;;;;;;;3.80;3.50;;;;;;;-145.94;35.32;76494.47;5117671;28;20192;-70
2023/05/31 09:57:40;;;;;;;4.37;4.17;;;;;;;-145.94;35.77;76476.13;5099019;28;20186;-70
2023/05/31 10:00:16;;;;;;;5.73;4.10;;;;;;;-145.94;35.82;76488.34;5117845;28;20162;-71
2023/05/31 10:02:44;;;;;;;3.87;3.43;;;;;;;-145.94;36.70;76480.19;5117540;28;20181;-71
2023/05/31 10:05:12;;;;;;;3.60;3.50;;;;;;;-145.94;36.09;76486.31;5116983;28;20606;-70
2023/05/31 10:07:42;;;;;;;4.77;3.60;;;;;;;-145.94;35.01;76467.97;5117247;28;20189;-71
2023/05/31 10:10:10;;;;;;;3.30;3.10;;;;;;;-145.94;35.07;76465.94;5117178;28;20778;-70
2023/05/31 10:12:45;;;;;;;4.73;3.37;;;;;;;-145.94;34.96;76457.78;5117164;28;20565;-70
2023/05/31 10:15:15;;;;;;;3.07;2.97;;;;;;;-145.94;34.78;76463.88;5117509;28;20184;-71
2023/05/31 10:17:50;;;;;;;5.03;3.23;;;;;;;-145.94;35.14;76453.69;5117080;28;20178;-70
2023/05/31 10:20:19;;;;;;;5.60;2.93;;;;;;;-145.94;34.11;76425.16;5117129;28;20165;-71
2023/05/31 10:22:49;;;;;;;3.60;3.00;;;;;;;-145.94;32.70;76404.75;5116815;28;20188;-70
2023/05/31 10:25:27;;;;;;;3.63;3.40;;;;;;;-145.94;33.10;76398.66;5116802;28;20177;-70
2023/05/31 10:27:57;;;;;;;3.47;3.27;;;;;;;-145.94;33.90;76386.41;5116786;28;20208;-70
2023/05/31 10:30:30;;;;;;;3.10;3.00;;;;;;;-145.94;33.51;76376.22;5116704;28;20267;-70
2023/05/31 10:33:07;;;;;;;5.10;3.07;;;;;;;-145.94;33.70;76359.91;5116834;28;20173;-70
2023/05/31 10:35:34;;;;;;;2.93;2.73;;;;;;;-145.94;33.11;76366.03;5116798;28;20259;-71
2023/05/31 10:38:01;;;;;;;3.73;2.87;;;;;;;-145.94;32.75;76380.28;5117097;28;20265;-70
2023/05/31 10:40:34;;;;;;;29.90;3.23;;;;;;;-145.94;32.79;76382.34;5116515;28;20246;-70
2023/05/31 10:43:24;;;;;;;3.13;2.93;;;;;;;-145.94;33.31;76378.25;5116774;28;20181;-71
2023/05/31 10:46:10;;;;;;;3.00;2.80;;;;;;;-145.94;33.74;76376.22;5116757;28;20558;-70
2023/05/31 10:48:53;;;;;;;3.90;3.20;;;;;;;-145.94;33.58;76378.25;5116559;28;20565;-70
2023/05/31 10:51:37;;;;;;;2.90;2.70;;;;;;;-145.94;34.30;76374.19;5116341;28;20185;-71
2023/05/31 10:54:04;;;;;;;2.83;2.63;;;;;;;-145.94;33.11;76363.97;5116601;28;20586;-70
2023/05/31 10:56:30;;;;;;;4.90;2.20;;;;;;;-145.94;32.77;76368.06;5116172;28;20651;-70
2023/05/31 10:58:57;;;;;;;3.03;2.93;;;;;;;-145.94;32.94;76351.75;5116069;28;20219;-70
2023/05/31 11:01:28;;;;;;;3.53;3.23;;;;;;;-145.94;32.95;76339.50;5116352;28;20193;-70
2023/05/31 11:03:57;;;;;;;2.87;2.77;;;;;;;-145.94;32.69;76345.63;5116457;28;20177;-71
2023/05/31 11:06:27;;;;;;;3.77;2.50;;;;;;;-145.94;33.38;76321.16;5116258;28;20555;-71
2023/05/31 11:09:01;;;;;;;3.80;3.50;;;;;;;-145.94;33.13;76325.25;5116111;28;20623;-70
2023/05/31 11:11:44;;;;;;;2.80;2.60;;;;;;;-145.94;32.88;76341.56;5116142;28;20189;-70
2023/05/31 11:14:25;;;;;;;5.33;2.57;;;;;;;-145.94;32.97;76331.34;5097528;28;20185;-71
2023/05/31 11:17:03;;;;;;;9.53;3.03;;;;;;;-145.94;33.39;76325.25;5115719;28;20165;-70
2023/05/31 11:19:31;;;;;;;3.07;2.97;;;;;;;-145.94;33.22;76313.00;5115633;28;20566;-71
2023/05/31 11:22:07;;;;;;;2.90;2.80;;;;;;;-145.94;33.08;76300.78;5116009;28;20177;-71
2023/05/31 11:24:39;;;;;;;2.90;2.70;;;;;;;-145.94;32.41;76306.88;5116300;28;20174;-70